Time;durP1;ratioP1;P1;durP2;ratioP2;P2;SDS_P1;SDS_P2;PMS_P1;PMS_P2;Temp;Humidity;BMP_temperature;BMP_pressure;BME280_temperature;BME280_humidity;BME280_pressure;Samples;Min_cycle;Max_cycle;Signal;HPM_P1;HPM_P2
2023/07/02 00:02:18;;;;;;;0.65;0.65;;;;;;;;;;5092338;28;20108;-82
2023/07/02 00:04:49;;;;;;;1.40;0.80;;;;;;;;;;5092866;28;20052;-85
2023/07/02 00:07:25;;;;;;;0.70;0.70;;;;;;;;;;5092195;28;20567;-83
2023/07/02 00:09:53;;;;;;;0.55;0.55;;;;;;;;;;5092311;28;20059;-82
2023/07/02 00:12:20;;;;;;;0.65;0.60;;;;;;;;;;5092409;28;20493;-82
2023/07/02 00:14:47;;;;;;;0.70;0.70;;;;;;;;;;5092542;28;20044;-82
2023/07/02 00:17:15;;;;;;;0.68;0.68;;;;;;;;;;5092099;28;20097;-82
2023/07/02 00:19:42;;;;;;;0.70;0.65;;;;;;;;;;5092204;28;20082;-82
2023/07/02 00:22:10;;;;;;;0.73;0.73;;;;;;;;;;5092327;28;20105;-82
2023/07/02 00:24:37;;;;;;;0.50;0.50;;;;;;;;;;5092186;28;20055;-83
2023/07/02 00:27:05;;;;;;;0.70;0.70;;;;;;;;;;5094328;28;20052;-83
2023/07/02 00:29:32;;;;;;;0.65;0.65;;;;;;;;;;5094088;28;20048;-83
2023/07/02 00:31:59;;;;;;;0.70;0.70;;;;;;;;;;5094625;28;20048;-82
2023/07/02 00:34:26;;;;;;;0.80;0.80;;;;;;;;;;5094663;28;20044;-83
2023/07/02 00:36:54;;;;;;;0.70;0.70;;;;;;;;;;5092604;28;20060;-83
2023/07/02 00:39:21;;;;;;;1.02;1.00;;;;;;;;;;5094362;28;20098;-83
2023/07/02 00:41:48;;;;;;;0.70;0.70;;;;;;;;;;5093979;28;20048;-82
2023/07/02 00:44:17;;;;;;;1.60;0.90;;;;;;;;;;5093014;28;20413;-83
2023/07/02 00:46:44;;;;;;;0.88;0.88;;;;;;;;;;5094383;28;20044;-83
2023/07/02 00:49:12;;;;;;;0.90;0.82;;;;;;;;;;5093028;28;20131;-83
2023/07/02 00:51:40;;;;;;;0.80;0.80;;;;;;;;;;5092554;28;20048;-82
2023/07/02 00:54:08;;;;;;;0.95;0.80;;;;;;;;;;5092879;28;20489;-82
2023/07/02 00:56:35;;;;;;;1.05;0.80;;;;;;;;;;5093023;28;20074;-83
2023/07/02 00:59:02;;;;;;;1.10;0.80;;;;;;;;;;5093398;28;20517;-83
2023/07/02 01:01:33;;;;;;;0.90;0.90;;;;;;;;;;5094906;28;20074;-83
2023/07/02 01:04:02;;;;;;;1.00;1.00;;;;;;;;;;5097047;28;20074;-82
2023/07/02 01:06:31;;;;;;;0.90;0.90;;;;;;;;;;5096587;28;20043;-83
2023/07/02 01:08:59;;;;;;;1.00;1.00;;;;;;;;;;5095382;28;20063;-82
2023/07/02 01:11:35;;;;;;;1.10;1.10;;;;;;;;;;5095618;28;20048;-82
2023/07/02 01:14:04;;;;;;;1.30;1.20;;;;;;;;;;5095651;28;20048;-82
2023/07/02 01:16:32;;;;;;;1.70;1.10;;;;;;;;;;5095412;28;20044;-82
2023/07/02 01:19:05;;;;;;;1.05;1.05;;;;;;;;;;5095165;28;20456;-83
2023/07/02 01:21:33;;;;;;;1.17;1.17;;;;;;;;;;5095596;28;20456;-82
2023/07/02 01:24:01;;;;;;;1.40;1.30;;;;;;;;;;5095886;28;20460;-83
2023/07/02 01:26:30;;;;;;;1.40;1.30;;;;;;;;;;5094957;28;20538;-83
2023/07/02 01:28:58;;;;;;;1.55;1.45;;;;;;;;;;5094893;28;20505;-82
2023/07/02 01:31:25;;;;;;;1.70;1.38;;;;;;;;;;5094864;28;20048;-82
2023/07/02 01:33:52;;;;;;;1.60;1.60;;;;;;;;;;5094898;28;20052;-82
2023/07/02 01:36:20;;;;;;;1.70;1.60;;;;;;;;;;5095718;28;20052;-83
2023/07/02 01:38:47;;;;;;;1.35;1.35;;;;;;;;;;5095490;28;20051;-83
2023/07/02 01:41:14;;;;;;;1.27;1.15;;;;;;;;;;5101823;28;20055;-83
2023/07/02 01:43:42;;;;;;;1.52;1.48;;;;;;;;;;5101962;28;20040;-84
2023/07/02 01:46:09;;;;;;;1.60;1.25;;;;;;;;;;5102342;28;20044;-84
2023/07/02 01:48:36;;;;;;;1.40;1.40;;;;;;;;;;5101150;28;20553;-84
2023/07/02 01:51:04;;;;;;;1.80;1.40;;;;;;;;;;5103121;28;20044;-83
2023/07/02 01:53:31;;;;;;;1.67;1.42;;;;;;;;;;5104188;28;20048;-83
2023/07/02 01:55:59;;;;;;;1.80;1.70;;;;;;;;;;5102456;28;20498;-82
2023/07/02 01:58:27;;;;;;;1.80;1.70;;;;;;;;;;5095694;28;20463;-82
2023/07/02 02:00:54;;;;;;;1.48;1.38;;;;;;;;;;5095513;28;20044;-82
2023/07/02 02:03:22;;;;;;;1.58;1.48;;;;;;;;;;5094225;28;20055;-82
2023/07/02 02:05:50;;;;;;;1.80;1.70;;;;;;;;;;5094161;28;20486;-82
2023/07/02 02:08:17;;;;;;;2.30;1.45;;;;;;;;;;5094018;28;20052;-83
2023/07/02 02:10:44;;;;;;;3.00;1.73;;;;;;;;;;5094135;28;20051;-82
2023/07/02 02:13:12;;;;;;;1.92;1.83;;;;;;;;;;5093342;28;20135;-82
2023/07/02 02:15:40;;;;;;;3.15;1.98;;;;;;;;;;5094150;28;20451;-82
2023/07/02 02:18:08;;;;;;;2.17;2.08;;;;;;;;;;5094550;28;20047;-82
2023/07/02 02:20:35;;;;;;;2.00;1.90;;;;;;;;;;5094093;28;20161;-82
2023/07/02 02:23:03;;;;;;;2.17;2.08;;;;;;;;;;5095078;28;20055;-82
2023/07/02 02:25:30;;;;;;;2.28;1.70;;;;;;;;;;5093951;28;20501;-82
2023/07/02 02:27:57;;;;;;;1.90;1.80;;;;;;;;;;5093942;28;20052;-82
2023/07/02 02:30:27;;;;;;;2.13;2.03;;;;;;;;;;5093595;28;20048;-82
2023/07/02 02:32:54;;;;;;;1.70;1.60;;;;;;;;;;5093671;28;20056;-82
2023/07/02 02:35:22;;;;;;;1.98;1.88;;;;;;;;;;5093669;28;20054;-82
2023/07/02 02:37:49;;;;;;;2.55;2.30;;;;;;;;;;5093808;28;20116;-82
2023/07/02 02:40:17;;;;;;;2.00;1.90;;;;;;;;;;5093985;28;20101;-82
2023/07/02 02:42:44;;;;;;;3.08;2.10;;;;;;;;;;5093277;28;20051;-81
2023/07/02 02:45:12;;;;;;;2.10;2.00;;;;;;;;;;5093826;28;20113;-82
2023/07/02 02:47:39;;;;;;;2.65;2.55;;;;;;;;;;5094813;28;20048;-82
2023/07/02 02:50:07;;;;;;;2.20;2.00;;;;;;;;;;5093449;28;20135;-82
2023/07/02 02:52:34;;;;;;;3.20;2.40;;;;;;;;;;5093339;28;20048;-82
2023/07/02 02:55:01;;;;;;;2.88;2.63;;;;;;;;;;5093664;28;20056;-82
2023/07/02 02:57:29;;;;;;;2.55;2.20;;;;;;;;;;5093520;28;20398;-82
2023/07/02 02:59:56;;;;;;;3.05;2.63;;;;;;;;;;5093516;28;20098;-82
2023/07/02 03:02:23;;;;;;;2.90;2.67;;;;;;;;;;5094469;28;20056;-82
2023/07/02 03:04:51;;;;;;;2.78;2.60;;;;;;;;;;5093414;28;20048;-81
2023/07/02 03:07:18;;;;;;;3.50;2.55;;;;;;;;;;5093548;28;20074;-82
2023/07/02 03:09:45;;;;;;;2.70;2.50;;;;;;;;;;5093496;28;20059;-82
2023/07/02 03:12:13;;;;;;;3.25;3.03;;;;;;;;;;5093595;28;20121;-82
2023/07/02 03:14:40;;;;;;;2.70;2.60;;;;;;;;;;5094916;28;20047;-82
2023/07/02 03:17:07;;;;;;;2.92;2.75;;;;;;;;;;5093785;28;20040;-82
2023/07/02 03:19:37;;;;;;;3.15;2.85;;;;;;;;;;5094771;28;20083;-83
2023/07/02 03:22:05;;;;;;;3.17;2.97;;;;;;;;;;5095180;28;20048;-82
2023/07/02 03:24:32;;;;;;;3.00;2.90;;;;;;;;;;5095169;28;20048;-82
2023/07/02 03:27:00;;;;;;;2.95;2.85;;;;;;;;;;5095380;28;20048;-82
2023/07/02 03:29:27;;;;;;;2.58;2.47;;;;;;;;;;5096753;28;20056;-82
2023/07/02 03:31:54;;;;;;;2.90;2.70;;;;;;;;;;5095710;28;20066;-81
2023/07/02 03:34:23;;;;;;;3.45;3.20;;;;;;;;;;5096169;28;20048;-83
2023/07/02 03:36:51;;;;;;;3.45;3.20;;;;;;;;;;5095569;28;20482;-82
2023/07/02 03:39:18;;;;;;;3.90;3.60;;;;;;;;;;5096177;28;20417;-82
2023/07/02 03:41:45;;;;;;;3.17;2.90;;;;;;;;;;5097151;28;20044;-82
2023/07/02 03:44:13;;;;;;;3.67;3.47;;;;;;;;;;5095854;28;20044;-82
2023/07/02 03:46:40;;;;;;;4.68;4.38;;;;;;;;;;5096786;28;20048;-83
2023/07/02 03:49:08;;;;;;;4.05;3.75;;;;;;;;;;5097396;28;20052;-83
2023/07/02 03:51:35;;;;;;;4.68;4.30;;;;;;;;;;5098318;28;20077;-83
2023/07/02 03:54:02;;;;;;;5.13;4.82;;;;;;;;;;5097465;28;20048;-82
2023/07/02 03:56:32;;;;;;;4.20;3.70;;;;;;;;;;5097089;28;20055;-83
2023/07/02 03:59:00;;;;;;;3.67;3.33;;;;;;;;;;5098525;28;20047;-81
2023/07/02 04:01:27;;;;;;;3.20;3.05;;;;;;;;;;5099370;28;20447;-83
2023/07/02 04:03:56;;;;;;;3.70;3.40;;;;;;;;;;5099712;28;20483;-82
2023/07/02 04:06:24;;;;;;;3.47;3.30;;;;;;;;;;5098196;28;20051;-83
2023/07/02 04:08:51;;;;;;;3.13;3.03;;;;;;;;;;5098712;28;20051;-83
2023/07/02 04:11:18;;;;;;;3.13;3.03;;;;;;;;;;5099397;28;20134;-83
2023/07/02 04:13:46;;;;;;;2.90;2.80;;;;;;;;;;5100209;28;20047;-83
2023/07/02 04:16:13;;;;;;;3.20;2.90;;;;;;;;;;5102671;28;20044;-83
2023/07/02 04:18:40;;;;;;;3.10;2.90;;;;;;;;;;5093912;28;20044;-82
2023/07/02 04:21:08;;;;;;;7.20;3.75;;;;;;;;;;5091920;28;20044;-82
2023/07/02 04:23:35;;;;;;;3.25;2.95;;;;;;;;;;5093249;28;20074;-82
2023/07/02 04:26:03;;;;;;;4.40;2.80;;;;;;;;;;5092315;28;20054;-82
2023/07/02 04:28:50;;;;;;;2.55;2.45;;;;;;;;;;5093235;28;20072;-82
2023/07/02 04:31:19;;;;;;;2.53;2.42;;;;;;;;;;5091956;28;20056;-82
2023/07/02 04:33:46;;;;;;;3.17;2.78;;;;;;;;;;5091932;28;20455;-82
2023/07/02 04:36:14;;;;;;;2.60;2.50;;;;;;;;;;5092919;28;20074;-82
2023/07/02 04:38:41;;;;;;;2.90;2.70;;;;;;;;;;5096088;28;20044;-82
2023/07/02 04:41:10;;;;;;;2.80;2.70;;;;;;;;;;5096247;28;20044;-82
2023/07/02 04:43:37;;;;;;;2.55;2.45;;;;;;;;;;5097282;28;20051;-82
2023/07/02 04:46:07;;;;;;;2.95;2.75;;;;;;;;;;5095761;28;20044;-82
2023/07/02 04:48:35;;;;;;;3.00;2.80;;;;;;;;;;5097013;28;20055;-82
2023/07/02 04:51:03;;;;;;;3.20;2.97;;;;;;;;;;5096039;28;20072;-82
2023/07/02 04:53:30;;;;;;;3.30;3.10;;;;;;;;;;5095909;28;20048;-81
2023/07/02 04:55:58;;;;;;;3.85;2.75;;;;;;;;;;5096097;28;20043;-82
2023/07/02 04:58:25;;;;;;;2.58;2.42;;;;;;;;;;5096444;28;20078;-82
2023/07/02 05:00:52;;;;;;;2.40;2.30;;;;;;;;;;5096363;28;20405;-83
2023/07/02 05:03:20;;;;;;;3.53;2.20;;;;;;;;;;5096565;28;20044;-82
2023/07/02 05:05:47;;;;;;;2.80;2.20;;;;;;;;;;5097164;28;20074;-83
2023/07/02 05:08:15;;;;;;;2.05;1.95;;;;;;;;;;5096210;28;20051;-81
2023/07/02 05:10:42;;;;;;;2.03;1.92;;;;;;;;;;5097731;28;20494;-82
2023/07/02 05:13:09;;;;;;;5.75;2.20;;;;;;;;;;5097874;28;20047;-83
2023/07/02 05:15:36;;;;;;;3.60;2.28;;;;;;;;;;5096129;28;20093;-83
2023/07/02 05:18:04;;;;;;;1.55;1.50;;;;;;;;;;5096097;28;20052;-82
2023/07/02 05:20:31;;;;;;;1.70;1.60;;;;;;;;;;5096187;28;20127;-83
2023/07/02 05:22:58;;;;;;;1.60;1.50;;;;;;;;;;5097872;28;20051;-83
2023/07/02 05:25:26;;;;;;;1.50;1.40;;;;;;;;;;5097385;28;20044;-83
2023/07/02 05:27:53;;;;;;;1.50;1.40;;;;;;;;;;5098231;28;20101;-82
2023/07/02 05:30:20;;;;;;;1.38;1.10;;;;;;;;;;5096975;28;20047;-82
2023/07/02 05:32:48;;;;;;;2.00;1.20;;;;;;;;;;5097198;28;20464;-82
2023/07/02 05:35:15;;;;;;;3.78;1.10;;;;;;;;;;5096897;28;20499;-83
2023/07/02 05:37:43;;;;;;;1.15;1.15;;;;;;;;;;5097312;28;20048;-83
2023/07/02 05:40:10;;;;;;;1.95;1.13;;;;;;;;;;5097359;28;20070;-83
2023/07/02 05:42:42;;;;;;;1.25;1.00;;;;;;;;;;5097384;28;20417;-83
2023/07/02 05:45:10;;;;;;;1.10;0.90;;;;;;;;;;5097946;28;20067;-84
2023/07/02 05:47:38;;;;;;;0.95;0.95;;;;;;;;;;5096808;28;20059;-83
2023/07/02 05:50:06;;;;;;;0.90;0.90;;;;;;;;;;5097202;28;20048;-83
2023/07/02 05:52:33;;;;;;;1.33;1.00;;;;;;;;;;5097038;28;20058;-83
2023/07/02 05:55:00;;;;;;;1.35;1.00;;;;;;;;;;5097935;28;20421;-84
2023/07/02 05:57:28;;;;;;;3.58;1.00;;;;;;;;;;5099346;28;20401;-84
2023/07/02 05:59:55;;;;;;;1.17;0.90;;;;;;;;;;5097962;28;20052;-84
2023/07/02 06:02:23;;;;;;;1.50;1.25;;;;;;;;;;5098328;28;20048;-84
2023/07/02 06:04:57;;;;;;;1.58;1.02;;;;;;;;;;5097871;28;20128;-83
2023/07/02 06:07:33;;;;;;;2.20;0.85;;;;;;;;;;5099066;28;20109;-84
2023/07/02 06:10:06;;;;;;;2.10;1.08;;;;;;;;;;5098240;28;20056;-85
2023/07/02 06:12:35;;;;;;;5.60;1.02;;;;;;;;;;5100884;28;20221;-84
2023/07/02 06:15:13;;;;;;;2.00;1.13;;;;;;;;;;5098780;28;20048;-83
2023/07/02 06:17:42;;;;;;;1.25;1.15;;;;;;;;;;5099698;28;20054;-83
2023/07/02 06:20:10;;;;;;;3.40;1.05;;;;;;;;;;5098667;28;20104;-83
2023/07/02 06:22:37;;;;;;;3.63;1.40;;;;;;;;;;5095016;28;20486;-83
2023/07/02 06:25:05;;;;;;;4.47;1.20;;;;;;;;;;5094731;28;20048;-84
2023/07/02 06:27:32;;;;;;;4.43;1.20;;;;;;;;;;5096104;28;20048;-83
2023/07/02 06:29:59;;;;;;;2.55;1.15;;;;;;;;;;5094676;28;20059;-83
2023/07/02 06:32:27;;;;;;;1.02;1.00;;;;;;;;;;5095047;28;20051;-83
2023/07/02 06:34:54;;;;;;;1.83;1.27;;;;;;;;;;5102286;28;20052;-84
2023/07/02 06:37:21;;;;;;;3.03;1.10;;;;;;;;;;5108527;28;20044;-84
2023/07/02 06:39:49;;;;;;;1.02;1.02;;;;;;;;;;5100356;28;20048;-84
2023/07/02 06:42:16;;;;;;;1.17;1.08;;;;;;;;;;5098038;28;20052;-84
2023/07/02 06:44:44;;;;;;;0.80;0.80;;;;;;;;;;5096565;28;20543;-85
2023/07/02 06:47:11;;;;;;;1.20;1.10;;;;;;;;;;5098338;28;20052;-84
2023/07/02 06:49:38;;;;;;;1.83;1.00;;;;;;;;;;5104244;28;20052;-85
2023/07/02 06:52:06;;;;;;;2.60;1.02;;;;;;;;;;5103242;28;20420;-84
2023/07/02 06:54:34;;;;;;;0.98;0.90;;;;;;;;;;5104772;28;20464;-84
2023/07/02 06:57:01;;;;;;;1.02;1.02;;;;;;;;;;5103469;28;20138;-86
2023/07/02 06:59:29;;;;;;;2.53;1.02;;;;;;;;;;5103237;28;20406;-85
2023/07/02 07:01:56;;;;;;;1.00;0.95;;;;;;;;;;5103674;28;20077;-84
2023/07/02 07:04:24;;;;;;;6.72;1.25;;;;;;;;;;5101472;28;20068;-82
2023/07/02 07:06:51;;;;;;;1.50;1.00;;;;;;;;;;5102401;28;20119;-85
2023/07/02 07:09:18;;;;;;;0.93;0.93;;;;;;;;;;5101625;28;20074;-84
2023/07/02 07:11:46;;;;;;;2.13;1.17;;;;;;;;;;5100800;28;20048;-85
2023/07/02 07:14:16;;;;;;;2.05;1.23;;;;;;;;;;5103511;28;20052;-85
2023/07/02 07:16:43;;;;;;;2.10;0.98;;;;;;;;;;5101821;28;20455;-85
2023/07/02 07:19:11;;;;;;;1.80;1.10;;;;;;;;;;5101416;28;20044;-84
2023/07/02 07:21:38;;;;;;;0.82;0.82;;;;;;;;;;5102675;28;20055;-85
2023/07/02 07:24:05;;;;;;;2.72;0.95;;;;;;;;;;5103761;28;20130;-85
2023/07/02 07:26:33;;;;;;;1.25;0.95;;;;;;;;;;5100278;28;20048;-85
2023/07/02 07:29:00;;;;;;;1.10;1.00;;;;;;;;;;5100274;28;20039;-85
2023/07/02 07:31:28;;;;;;;2.17;1.02;;;;;;;;;;5102440;28;20054;-85
2023/07/02 07:33:55;;;;;;;1.08;1.00;;;;;;;;;;5103251;28;20090;-85
2023/07/02 07:36:22;;;;;;;1.50;0.88;;;;;;;;;;5102425;28;20074;-84
2023/07/02 07:38:50;;;;;;;1.13;0.98;;;;;;;;;;5099913;28;20044;-86
2023/07/02 07:41:18;;;;;;;1.00;1.00;;;;;;;;;;5103738;28;20067;-85
2023/07/02 07:43:45;;;;;;;1.65;0.90;;;;;;;;;;5101214;28;20044;-86
2023/07/02 07:46:13;;;;;;;1.35;0.90;;;;;;;;;;5100135;28;20051;-86
2023/07/02 07:48:40;;;;;;;2.58;1.17;;;;;;;;;;5099026;28;20044;-84
2023/07/02 07:51:08;;;;;;;2.92;1.00;;;;;;;;;;5097725;28;20105;-85
2023/07/02 07:53:38;;;;;;;2.88;1.10;;;;;;;;;;5100695;28;20048;-85
2023/07/02 07:56:06;;;;;;;2.97;2.17;;;;;;;;;;5099324;28;20493;-85
2023/07/02 07:58:33;;;;;;;3.42;3.15;;;;;;;;;;5108555;28;20073;-84
2023/07/02 08:01:01;;;;;;;1.55;1.52;;;;;;;;;;5111633;28;20477;-85
2023/07/02 08:03:28;;;;;;;1.33;1.20;;;;;;;;;;5107309;28;20059;-85
2023/07/02 08:05:55;;;;;;;1.40;1.40;;;;;;;;;;5102851;28;20048;-85
2023/07/02 08:08:23;;;;;;;1.83;0.90;;;;;;;;;;5099445;28;20489;-85
2023/07/02 08:10:52;;;;;;;4.05;1.10;;;;;;;;;;5093990;28;20052;-87
2023/07/02 08:13:19;;;;;;;2.95;1.02;;;;;;;;;;5095043;28;20456;-86
2023/07/02 08:15:46;;;;;;;2.60;1.23;;;;;;;;;;5096854;28;20055;-84
2023/07/02 08:18:14;;;;;;;1.52;1.15;;;;;;;;;;5096222;28;20120;-85
2023/07/02 08:20:41;;;;;;;5.63;1.15;;;;;;;;;;5097654;28;20117;-86
2023/07/02 08:23:08;;;;;;;2.40;1.02;;;;;;;;;;5098199;28;20051;-86
2023/07/02 08:25:36;;;;;;;6.28;5.45;;;;;;;;;;5097520;28;20052;-85
2023/07/02 08:28:03;;;;;;;4.13;1.65;;;;;;;;;;5099096;28;20504;-85
2023/07/02 08:30:31;;;;;;;3.03;1.27;;;;;;;;;;5096734;28;20078;-85
2023/07/02 08:32:58;;;;;;;2.80;1.30;;;;;;;;;;5097130;28;20054;-85
2023/07/02 08:35:25;;;;;;;7.47;1.27;;;;;;;;;;5099632;28;20421;-85
2023/07/02 08:37:53;;;;;;;2.78;1.67;;;;;;;;;;5095186;28;20048;-86
2023/07/02 08:40:20;;;;;;;4.55;1.33;;;;;;;;;;5096339;28;20048;-85
2023/07/02 08:42:48;;;;;;;2.40;1.40;;;;;;;;;;5096772;28;20079;-86
2023/07/02 08:45:18;;;;;;;2.65;1.20;;;;;;;;;;5096828;28;20051;-86
2023/07/02 08:47:46;;;;;;;3.60;1.20;;;;;;;;;;5096319;28;20074;-85
2023/07/02 08:50:13;;;;;;;2.90;1.30;;;;;;;;;;5098710;28;20072;-85
2023/07/02 08:52:42;;;;;;;1.55;1.42;;;;;;;;;;5097246;28;20048;-85
2023/07/02 08:55:10;;;;;;;2.03;1.10;;;;;;;;;;5098325;28;20091;-85
2023/07/02 08:57:37;;;;;;;5.85;1.60;;;;;;;;;;5098153;28;20048;-87
2023/07/02 09:00:08;;;;;;;6.43;1.40;;;;;;;;;;5096104;28;20497;-86
2023/07/02 09:02:36;;;;;;;1.52;1.40;;;;;;;;;;5103034;28;20460;-84
2023/07/02 09:05:04;;;;;;;2.80;1.20;;;;;;;;;;5104561;28;20048;-87
2023/07/02 09:07:32;;;;;;;1.20;1.10;;;;;;;;;;5093853;28;20493;-86
2023/07/02 09:09:59;;;;;;;1.55;1.17;;;;;;;;;;5095367;28;20048;-86
2023/07/02 09:12:28;;;;;;;1.80;1.40;;;;;;;;;;5095741;28;20052;-84
2023/07/02 09:14:57;;;;;;;1.73;1.23;;;;;;;;;;5095225;28;20058;-85
2023/07/02 09:17:34;;;;;;;1.30;1.20;;;;;;;;;;5096142;28;20044;-84
2023/07/02 09:20:04;;;;;;;3.33;1.33;;;;;;;;;;5095867;28;20044;-85
2023/07/02 09:22:32;;;;;;;5.00;1.27;;;;;;;;;;5100575;28;20036;-85
2023/07/02 09:25:00;;;;;;;5.38;1.35;;;;;;;;;;5101660;28;20074;-85
2023/07/02 09:27:42;;;;;;;2.05;1.30;;;;;;;;;;5099562;28;20048;-87
2023/07/02 09:30:15;;;;;;;2.70;1.50;;;;;;;;;;5101865;28;20044;-85
2023/07/02 09:32:44;;;;;;;2.38;1.70;;;;;;;;;;5101038;28;20048;-86
2023/07/02 09:35:14;;;;;;;2.97;1.77;;;;;;;;;;5099113;28;20044;-85
2023/07/02 09:37:45;;;;;;;2.08;1.70;;;;;;;;;;5100995;28;20075;-85
2023/07/02 09:40:13;;;;;;;3.95;1.60;;;;;;;;;;5100519;28;20123;-83
2023/07/02 09:42:52;;;;;;;4.75;1.63;;;;;;;;;;5101153;28;20486;-83
2023/07/02 09:45:19;;;;;;;1.92;1.70;;;;;;;;;;5098702;28;20040;-83
2023/07/02 09:47:50;;;;;;;1.60;1.50;;;;;;;;;;5097333;28;20044;-83
2023/07/02 09:50:18;;;;;;;1.77;1.58;;;;;;;;;;5098246;28;20056;-84
2023/07/02 09:52:47;;;;;;;1.60;1.50;;;;;;;;;;5100272;28;20056;-84
2023/07/02 09:55:14;;;;;;;4.07;1.23;;;;;;;;;;5099983;28;20135;-84
2023/07/02 09:57:46;;;;;;;1.85;1.48;;;;;;;;;;5101384;28;20127;-84
2023/07/02 10:00:14;;;;;;;3.17;1.65;;;;;;;;;;5101979;28;20105;-84
2023/07/02 10:02:42;;;;;;;2.40;1.10;;;;;;;;;;5101423;28;20052;-85
2023/07/02 10:05:32;;;;;;;2.72;1.50;;;;;;;;;;5101343;28;20047;-83
2023/07/02 10:08:12;;;;;;;1.77;1.65;;;;;;;;;;5102223;28;20052;-85
2023/07/02 10:10:40;;;;;;;4.30;1.95;;;;;;;;;;5101157;28;20070;-83
2023/07/02 10:13:07;;;;;;;3.88;1.70;;;;;;;;;;5101035;28;20048;-85
2023/07/02 10:15:39;;;;;;;3.17;1.85;;;;;;;;;;5098981;28;20493;-82
2023/07/02 10:18:06;;;;;;;3.90;1.58;;;;;;;;;;5099728;28;20109;-83
2023/07/02 10:20:35;;;;;;;3.50;1.90;;;;;;;;;;5098842;28;20109;-83
2023/07/02 10:23:03;;;;;;;1.85;1.70;;;;;;;;;;5100421;28;20048;-85
2023/07/02 10:25:42;;;;;;;2.88;1.70;;;;;;;;;;5099545;28;20055;-84
2023/07/02 10:28:16;;;;;;;3.70;1.95;;;;;;;;;;5098712;28;20051;-86
2023/07/02 10:30:43;;;;;;;1.80;1.70;;;;;;;;;;5101514;28;20059;-80
2023/07/02 10:33:14;;;;;;;2.78;1.85;;;;;;;;;;5100525;28;20055;-85
2023/07/02 10:35:44;;;;;;;3.60;1.70;;;;;;;;;;5099123;28;20051;-85
2023/07/02 10:38:21;;;;;;;2.78;1.98;;;;;;;;;;5098771;28;20071;-83
2023/07/02 10:41:04;;;;;;;6.93;1.75;;;;;;;;;;5098337;28;20048;-84
2023/07/02 10:43:32;;;;;;;2.35;1.65;;;;;;;;;;5098494;28;20055;-83
2023/07/02 10:46:00;;;;;;;5.18;1.75;;;;;;;;;;5097836;28;20048;-83
2023/07/02 10:48:28;;;;;;;2.28;1.90;;;;;;;;;;5099278;28;20048;-83
2023/07/02 10:50:56;;;;;;;4.53;1.88;;;;;;;;;;5100193;28;20107;-82
2023/07/02 10:53:23;;;;;;;5.68;1.95;;;;;;;;;;5098855;28;20494;-83
2023/07/02 10:55:55;;;;;;;4.78;2.38;;;;;;;;;;5098953;28;20143;-83
2023/07/02 10:58:24;;;;;;;2.35;2.15;;;;;;;;;;5098115;28;20083;-84
2023/07/02 11:00:52;;;;;;;2.40;2.05;;;;;;;;;;5099577;28;20048;-83
2023/07/02 11:03:21;;;;;;;3.70;2.20;;;;;;;;;;5097558;28;20076;-82
2023/07/02 11:05:50;;;;;;;4.03;2.40;;;;;;;;;;5097337;28;20044;-83
2023/07/02 11:08:18;;;;;;;4.97;2.58;;;;;;;;;;5098494;28;20048;-83
2023/07/02 11:10:45;;;;;;;2.70;2.40;;;;;;;;;;5098022;28;20055;-83
2023/07/02 11:13:13;;;;;;;4.88;2.15;;;;;;;;;;5098332;28;20101;-82
2023/07/02 11:15:41;;;;;;;2.10;1.92;;;;;;;;;;5097691;28;20078;-84
2023/07/02 11:18:12;;;;;;;3.20;2.38;;;;;;;;;;5099163;28;20390;-84
2023/07/02 11:20:41;;;;;;;3.10;2.60;;;;;;;;;;5096261;28;20055;-82
2023/07/02 11:23:18;;;;;;;3.45;2.47;;;;;;;;;;5097868;28;20077;-83
2023/07/02 11:25:59;;;;;;;2.40;2.15;;;;;;;;;;5099022;28;20050;-85
2023/07/02 11:28:27;;;;;;;4.47;2.60;;;;;;;;;;5102879;28;20109;-82
2023/07/02 11:30:55;;;;;;;5.90;2.90;;;;;;;;;;5099853;28;20071;-81
2023/07/02 11:33:38;;;;;;;3.95;2.30;;;;;;;;;;5098924;28;20052;-86
2023/07/02 11:36:07;;;;;;;7.27;2.90;;;;;;;;;;5099577;28;20051;-84
2023/07/02 11:38:35;;;;;;;4.68;2.50;;;;;;;;;;5100789;28;20512;-84
2023/07/02 11:41:05;;;;;;;3.58;2.42;;;;;;;;;;5101615;28;20071;-85
2023/07/02 11:43:34;;;;;;;2.85;2.60;;;;;;;;;;5099607;28;20074;-84
2023/07/02 11:46:01;;;;;;;3.22;2.92;;;;;;;;;;5098591;28;20054;-81
2023/07/02 11:48:28;;;;;;;3.13;2.80;;;;;;;;;;5097048;28;20074;-83
2023/07/02 11:50:56;;;;;;;3.65;2.97;;;;;;;;;;5095939;28;20060;-83
2023/07/02 11:53:25;;;;;;;3.70;2.88;;;;;;;;;;5098833;28;20078;-83
2023/07/02 11:55:53;;;;;;;4.05;2.92;;;;;;;;;;5097170;28;20060;-81
2023/07/02 11:58:20;;;;;;;6.75;3.30;;;;;;;;;;5096918;28;20047;-83
2023/07/02 12:00:47;;;;;;;3.60;2.60;;;;;;;;;;5096168;28;20056;-82
2023/07/02 12:03:15;;;;;;;3.08;2.70;;;;;;;;;;5097630;28;20044;-84
2023/07/02 12:05:42;;;;;;;2.83;2.55;;;;;;;;;;5097530;28;20048;-85
2023/07/02 12:08:10;;;;;;;5.07;2.78;;;;;;;;;;5097343;28;20044;-84
2023/07/02 12:10:37;;;;;;;8.07;2.90;;;;;;;;;;5097260;28;20052;-84
2023/07/02 12:13:05;;;;;;;3.20;2.90;;;;;;;;;;5099335;28;20111;-84
2023/07/02 12:15:32;;;;;;;3.83;2.90;;;;;;;;;;5097131;28;20044;-83
2023/07/02 12:17:59;;;;;;;5.75;2.83;;;;;;;;;;5098212;28;20101;-83
2023/07/02 12:20:27;;;;;;;5.72;3.90;;;;;;;;;;5098720;28;20087;-84
2023/07/02 12:22:54;;;;;;;4.18;3.55;;;;;;;;;;5097068;28;20059;-84
2023/07/02 12:25:23;;;;;;;4.15;3.40;;;;;;;;;;5097144;28;20048;-81
2023/07/02 12:27:50;;;;;;;6.18;3.78;;;;;;;;;;5096685;28;20055;-84
2023/07/02 12:30:18;;;;;;;3.95;3.55;;;;;;;;;;5097688;28;20040;-84
2023/07/02 12:32:45;;;;;;;5.38;3.45;;;;;;;;;;5096523;28;20048;-83
2023/07/02 12:35:13;;;;;;;5.60;3.78;;;;;;;;;;5096891;28;20044;-83
2023/07/02 12:37:44;;;;;;;5.63;3.47;;;;;;;;;;5096205;28;20176;-82
2023/07/02 12:40:12;;;;;;;5.03;3.92;;;;;;;;;;5097366;28;20044;-83
2023/07/02 12:42:39;;;;;;;7.35;3.70;;;;;;;;;;5097226;28;20052;-82
2023/07/02 12:45:07;;;;;;;4.57;3.55;;;;;;;;;;5095883;28;20051;-83
2023/07/02 12:47:34;;;;;;;4.65;3.70;;;;;;;;;;5098044;28;20044;-82
2023/07/02 12:50:02;;;;;;;7.82;3.83;;;;;;;;;;5095614;28;20086;-82
2023/07/02 12:52:29;;;;;;;4.13;3.30;;;;;;;;;;5095447;28;20055;-84
2023/07/02 12:54:57;;;;;;;5.22;4.40;;;;;;;;;;5094289;28;20455;-83
2023/07/02 12:57:26;;;;;;;5.15;3.95;;;;;;;;;;5097798;28;20145;-85
2023/07/02 12:59:57;;;;;;;7.38;4.38;;;;;;;;;;5100008;28;20047;-84
2023/07/02 13:02:24;;;;;;;5.50;3.70;;;;;;;;;;5097125;28;20040;-83
2023/07/02 13:04:51;;;;;;;5.63;4.20;;;;;;;;;;5099253;28;20052;-84
2023/07/02 13:07:19;;;;;;;4.78;4.28;;;;;;;;;;5101457;28;20060;-82
2023/07/02 13:09:46;;;;;;;5.75;4.25;;;;;;;;;;5098899;28;20078;-83
2023/07/02 13:12:14;;;;;;;6.35;4.20;;;;;;;;;;5101767;28;20048;-84
2023/07/02 13:14:41;;;;;;;9.15;4.47;;;;;;;;;;5101083;28;20165;-84
2023/07/02 13:17:08;;;;;;;6.47;3.75;;;;;;;;;;5101554;28;20102;-81
2023/07/02 13:19:36;;;;;;;5.30;4.32;;;;;;;;;;5102067;28;20070;-83
2023/07/02 13:22:03;;;;;;;10.75;4.35;;;;;;;;;;5100696;28;20040;-84
2023/07/02 13:24:37;;;;;;;5.43;3.80;;;;;;;;;;5100102;28;20040;-84
2023/07/02 13:27:07;;;;;;;6.38;3.97;;;;;;;;;;5101184;28;20048;-83
2023/07/02 13:29:34;;;;;;;7.47;4.10;;;;;;;;;;5100730;28;20086;-82
2023/07/02 13:32:01;;;;;;;5.82;4.40;;;;;;;;;;5101292;28;20055;-82
2023/07/02 13:34:29;;;;;;;7.80;4.45;;;;;;;;;;5100591;28;20493;-82
2023/07/02 13:36:56;;;;;;;6.45;4.43;;;;;;;;;;5099909;28;20060;-83
2023/07/02 13:39:24;;;;;;;6.53;4.35;;;;;;;;;;5100441;28;20107;-84
2023/07/02 13:41:52;;;;;;;4.88;4.28;;;;;;;;;;5099100;28;20052;-82
2023/07/02 13:44:19;;;;;;;7.53;4.63;;;;;;;;;;5101410;28;20052;-85
2023/07/02 13:46:49;;;;;;;7.47;4.35;;;;;;;;;;5099923;28;20101;-83
2023/07/02 13:49:17;;;;;;;6.88;4.22;;;;;;;;;;5102276;28;20063;-85
2023/07/02 13:51:44;;;;;;;8.80;4.43;;;;;;;;;;5100211;28;20056;-84
2023/07/02 13:54:14;;;;;;;7.32;4.95;;;;;;;;;;5107813;28;20048;-84
2023/07/02 13:56:41;;;;;;;6.45;4.70;;;;;;;;;;5102473;28;20051;-82
2023/07/02 13:59:09;;;;;;;6.70;4.30;;;;;;;;;;5098463;28;20458;-82
2023/07/02 14:01:36;;;;;;;6.18;4.28;;;;;;;;;;5100974;28;20098;-84
2023/07/02 14:04:04;;;;;;;6.75;5.25;;;;;;;;;;5102253;28;20048;-84
2023/07/02 14:06:31;;;;;;;5.20;4.45;;;;;;;;;;5101551;28;20051;-85
2023/07/02 14:08:59;;;;;;;6.57;4.70;;;;;;;;;;5099959;28;20078;-83
2023/07/02 14:11:27;;;;;;;9.02;4.70;;;;;;;;;;5100715;28;20086;-80
2023/07/02 14:13:55;;;;;;;7.53;4.45;;;;;;;;;;5099705;28;20155;-85
2023/07/02 14:16:24;;;;;;;7.10;4.80;;;;;;;;;;5099805;28;20051;-83
2023/07/02 14:18:51;;;;;;;6.45;4.93;;;;;;;;;;5102106;28;20074;-84
2023/07/02 14:21:20;;;;;;;7.07;5.00;;;;;;;;;;5100157;28;20047;-82
2023/07/02 14:23:47;;;;;;;7.57;5.38;;;;;;;;;;5098925;28;20497;-83
2023/07/02 14:26:14;;;;;;;9.52;4.60;;;;;;;;;;5097976;28;20052;-82
2023/07/02 14:28:41;;;;;;;7.22;5.35;;;;;;;;;;5098344;28;20052;-82
2023/07/02 14:31:09;;;;;;;5.88;4.65;;;;;;;;;;5095765;28;20051;-81
2023/07/02 14:33:37;;;;;;;6.15;4.85;;;;;;;;;;5095720;28;20060;-84
2023/07/02 14:36:05;;;;;;;5.60;4.80;;;;;;;;;;5096993;28;20071;-87
2023/07/02 14:38:33;;;;;;;9.85;5.20;;;;;;;;;;5095744;28;20048;-83
2023/07/02 14:41:00;;;;;;;7.53;5.03;;;;;;;;;;5095815;28;20048;-82
2023/07/02 14:43:29;;;;;;;7.72;4.88;;;;;;;;;;5096206;28;20386;-84
2023/07/02 14:46:00;;;;;;;5.80;4.75;;;;;;;;;;5097065;28;20040;-83
2023/07/02 14:48:28;;;;;;;8.90;4.82;;;;;;;;;;5096326;28;20098;-83
2023/07/02 14:50:56;;;;;;;7.28;5.30;;;;;;;;;;5097503;28;20109;-85